Church Point, Louisiana
Current Conditions -  °F | °C
As of 12:35 PM on Thursday 27 Nov 2014 (Local Time) from KOPL Reporting Station
Clear Clear  
Wind Chill: 56°   Ceiling: Unl
Heat Index: 56°   Visibility: 10mi
Dew Point: 32°   Wind: 10mph
Humidity: 39%   Direction: 10°N
Pressure: 30.44"   Gusts: NA
Location:  30.4°N, 92.22°W
Report Text: KOPL 271835Z AUTO 01009KT 10SM CLR 14/00 A3044 RMK AO2 T01351001
Loading
Personal Weather Stations






























Interactive Weather Map New forecast layout! Learn more

10-Day Weather Forecast

Advertisements
Track Severe Weather on mobile